sensor_id;sensor_type;location;lat;lon;timestamp;P1;durP1;ratioP1;P2;durP2;ratioP2
72575;SDS011;60613;48.658;2.328;2023-11-19T07:02:44;4.00;;;0.60;;
72575;SDS011;60613;48.658;2.328;2023-11-19T07:05:09;2.92;;;0.50;;
72575;SDS011;60613;48.658;2.328;2023-11-19T07:07:35;4.45;;;0.70;;
72575;SDS011;60613;48.658;2.328;2023-11-19T07:10:01;3.33;;;0.60;;
72575;SDS011;60613;48.658;2.328;2023-11-19T07:12:27;3.53;;;0.68;;
72575;SDS011;60613;48.658;2.328;2023-11-19T07:14:53;3.23;;;0.70;;
72575;SDS011;60613;48.658;2.328;2023-11-19T07:17:20;2.40;;;0.50;;
72575;SDS011;60613;48.658;2.328;2023-11-19T07:19:54;4.20;;;0.73;;
72575;SDS011;60613;48.658;2.328;2023-11-19T07:22:20;2.35;;;0.50;;
72575;SDS011;60613;48.658;2.328;2023-11-19T07:24:45;3.47;;;0.80;;
72575;SDS011;60613;48.658;2.328;2023-11-19T07:27:11;5.33;;;0.80;;
72575;SDS011;60613;48.658;2.328;2023-11-19T07:29:38;2.25;;;0.50;;
72575;SDS011;60613;48.658;2.328;2023-11-19T07:32:04;3.33;;;0.80;;
72575;SDS011;60613;48.658;2.328;2023-11-19T07:34:30;2.17;;;0.60;;
72575;SDS011;60613;48.658;2.328;2023-11-19T07:36:55;2.45;;;0.55;;
72575;SDS011;60613;48.658;2.328;2023-11-19T07:39:24;3.67;;;0.70;;
72575;SDS011;60613;48.658;2.328;2023-11-19T07:41:50;3.17;;;0.70;;
72575;SDS011;60613;48.658;2.328;2023-11-19T07:44:15;3.30;;;0.60;;
72575;SDS011;60613;48.658;2.328;2023-11-19T07:46:41;2.85;;;0.70;;
72575;SDS011;60613;48.658;2.328;2023-11-19T07:49:07;3.33;;;0.60;;
72575;SDS011;60613;48.658;2.328;2023-11-19T07:51:34;5.03;;;0.90;;
72575;SDS011;60613;48.658;2.328;2023-11-19T07:54:00;6.63;;;1.07;;
72575;SDS011;60613;48.658;2.328;2023-11-19T07:56:25;6.47;;;1.00;;
72575;SDS011;60613;48.658;2.328;2023-11-19T07:58:51;5.88;;;1.30;;
72575;SDS011;60613;48.658;2.328;2023-11-19T08:01:17;10.23;;;1.50;;
72575;SDS011;60613;48.658;2.328;2023-11-19T08:03:43;8.77;;;1.40;;
72575;SDS011;60613;48.658;2.328;2023-11-19T08:06:09;6.20;;;1.10;;
72575;SDS011;60613;48.658;2.328;2023-11-19T08:08:34;6.85;;;1.30;;
72575;SDS011;60613;48.658;2.328;2023-11-19T08:11:00;8.30;;;1.30;;
72575;SDS011;60613;48.658;2.328;2023-11-19T08:13:26;6.80;;;1.37;;
72575;SDS011;60613;48.658;2.328;2023-11-19T08:15:52;7.10;;;1.48;;
72575;SDS011;60613;48.658;2.328;2023-11-19T08:18:17;10.07;;;1.63;;
72575;SDS011;60613;48.658;2.328;2023-11-19T08:20:43;10.30;;;1.40;;
72575;SDS011;60613;48.658;2.328;2023-11-19T08:23:09;8.00;;;1.40;;
72575;SDS011;60613;48.658;2.328;2023-11-19T08:25:35;7.50;;;1.53;;
72575;SDS011;60613;48.658;2.328;2023-11-19T08:28:01;5.80;;;1.50;;
72575;SDS011;60613;48.658;2.328;2023-11-19T08:30:28;5.67;;;1.30;;
72575;SDS011;60613;48.658;2.328;2023-11-19T08:32:54;8.63;;;1.90;;
72575;SDS011;60613;48.658;2.328;2023-11-19T08:35:20;6.35;;;1.40;;
72575;SDS011;60613;48.658;2.328;2023-11-19T08:37:45;6.93;;;1.40;;
72575;SDS011;60613;48.658;2.328;2023-11-19T08:40:11;7.03;;;1.30;;
72575;SDS011;60613;48.658;2.328;2023-11-19T08:42:39;7.53;;;1.17;;
72575;SDS011;60613;48.658;2.328;2023-11-19T08:45:06;5.67;;;1.20;;
72575;SDS011;60613;48.658;2.328;2023-11-19T08:47:33;8.30;;;1.23;;
72575;SDS011;60613;48.658;2.328;2023-11-19T08:49:59;9.40;;;1.45;;
72575;SDS011;60613;48.658;2.328;2023-11-19T08:52:25;8.57;;;1.20;;
72575;SDS011;60613;48.658;2.328;2023-11-19T08:54:50;8.38;;;1.42;;
72575;SDS011;60613;48.658;2.328;2023-11-19T08:57:16;5.80;;;1.07;;
72575;SDS011;60613;48.658;2.328;2023-11-19T08:59:41;5.60;;;1.20;;
72575;SDS011;60613;48.658;2.328;2023-11-19T09:02:07;7.65;;;1.20;;
72575;SDS011;60613;48.658;2.328;2023-11-19T09:04:33;8.50;;;1.30;;
72575;SDS011;60613;48.658;2.328;2023-11-19T09:06:58;6.47;;;1.20;;
72575;SDS011;60613;48.658;2.328;2023-11-19T09:09:24;8.30;;;1.37;;
72575;SDS011;60613;48.658;2.328;2023-11-19T09:11:50;9.53;;;1.30;;
72575;SDS011;60613;48.658;2.328;2023-11-19T09:14:16;8.50;;;1.30;;
72575;SDS011;60613;48.658;2.328;2023-11-19T09:16:43;8.43;;;1.20;;
72575;SDS011;60613;48.658;2.328;2023-11-19T09:19:08;8.55;;;1.20;;
72575;SDS011;60613;48.658;2.328;2023-11-19T09:21:34;9.07;;;1.33;;
72575;SDS011;60613;48.658;2.328;2023-11-19T09:24:03;9.75;;;1.65;;
72575;SDS011;60613;48.658;2.328;2023-11-19T09:26:29;7.05;;;1.20;;
72575;SDS011;60613;48.658;2.328;2023-11-19T09:28:55;7.47;;;1.30;;
72575;SDS011;60613;48.658;2.328;2023-11-19T09:31:21;12.20;;;1.50;;
72575;SDS011;60613;48.658;2.328;2023-11-19T09:33:46;11.13;;;1.77;;
72575;SDS011;60613;48.658;2.328;2023-11-19T09:36:12;8.50;;;1.30;;
72575;SDS011;60613;48.658;2.328;2023-11-19T09:38:39;7.82;;;1.00;;
72575;SDS011;60613;48.658;2.328;2023-11-19T09:41:05;6.88;;;1.30;;
72575;SDS011;60613;48.658;2.328;2023-11-19T09:43:34;10.20;;;1.20;;
72575;SDS011;60613;48.658;2.328;2023-11-19T09:46:04;8.50;;;1.25;;
72575;SDS011;60613;48.658;2.328;2023-11-19T09:48:34;9.25;;;1.00;;
72575;SDS011;60613;48.658;2.328;2023-11-19T09:51:00;8.32;;;1.10;;
72575;SDS011;60613;48.658;2.328;2023-11-19T09:53:27;6.68;;;1.00;;
72575;SDS011;60613;48.658;2.328;2023-11-19T09:55:53;8.07;;;1.00;;
72575;SDS011;60613;48.658;2.328;2023-11-19T09:58:19;6.70;;;1.27;;
72575;SDS011;60613;48.658;2.328;2023-11-19T10:00:45;6.60;;;0.97;;
72575;SDS011;60613;48.658;2.328;2023-11-19T10:03:11;7.25;;;0.90;;
72575;SDS011;60613;48.658;2.328;2023-11-19T10:05:38;6.97;;;1.10;;
72575;SDS011;60613;48.658;2.328;2023-11-19T10:08:04;7.27;;;1.10;;
72575;SDS011;60613;48.658;2.328;2023-11-19T10:10:30;6.85;;;1.13;;
72575;SDS011;60613;48.658;2.328;2023-11-19T10:12:56;7.35;;;1.25;;
72575;SDS011;60613;48.658;2.328;2023-11-19T10:15:22;6.37;;;1.20;;
72575;SDS011;60613;48.658;2.328;2023-11-19T10:17:50;5.50;;;1.10;;
72575;SDS011;60613;48.658;2.328;2023-11-19T10:20:16;4.28;;;0.90;;
72575;SDS011;60613;48.658;2.328;2023-11-19T10:22:41;7.78;;;1.40;;
72575;SDS011;60613;48.658;2.328;2023-11-19T10:25:23;7.27;;;1.67;;
72575;SDS011;60613;48.658;2.328;2023-11-19T10:27:53;8.50;;;1.10;;
72575;SDS011;60613;48.658;2.328;2023-11-19T10:30:27;6.03;;;1.00;;
72575;SDS011;60613;48.658;2.328;2023-11-19T10:35:32;6.27;;;1.00;;
72575;SDS011;60613;48.658;2.328;2023-11-19T10:37:59;8.63;;;1.23;;
72575;SDS011;60613;48.658;2.328;2023-11-19T10:40:43;9.75;;;1.20;;
72575;SDS011;60613;48.658;2.328;2023-11-19T10:43:09;5.55;;;1.10;;
72575;SDS011;60613;48.658;2.328;2023-11-19T10:45:35;8.23;;;1.38;;
72575;SDS011;60613;48.658;2.328;2023-11-19T10:48:02;6.43;;;1.00;;
72575;SDS011;60613;48.658;2.328;2023-11-19T10:50:35;7.55;;;0.98;;
72575;SDS011;60613;48.658;2.328;2023-11-19T10:53:03;6.35;;;1.33;;
72575;SDS011;60613;48.658;2.328;2023-11-19T10:55:30;7.43;;;1.20;;
72575;SDS011;60613;48.658;2.328;2023-11-19T10:58:04;8.43;;;1.55;;
72575;SDS011;60613;48.658;2.328;2023-11-19T11:00:37;6.67;;;1.00;;
72575;SDS011;60613;48.658;2.328;2023-11-19T11:03:24;8.68;;;1.55;;
72575;SDS011;60613;48.658;2.328;2023-11-19T11:05:51;8.70;;;1.45;;
72575;SDS011;60613;48.658;2.328;2023-11-19T11:08:17;7.70;;;1.65;;
72575;SDS011;60613;48.658;2.328;2023-11-19T11:10:44;7.40;;;1.27;;
72575;SDS011;60613;48.658;2.328;2023-11-19T11:13:13;7.53;;;1.27;;
72575;SDS011;60613;48.658;2.328;2023-11-19T11:15:39;7.32;;;1.10;;
72575;SDS011;60613;48.658;2.328;2023-11-19T11:18:08;7.65;;;1.45;;
72575;SDS011;60613;48.658;2.328;2023-11-19T11:20:34;9.68;;;1.42;;
72575;SDS011;60613;48.658;2.328;2023-11-19T11:28:47;8.07;;;1.80;;
72575;SDS011;60613;48.658;2.328;2023-11-19T11:33:59;7.80;;;1.45;;
72575;SDS011;60613;48.658;2.328;2023-11-19T11:36:27;8.07;;;1.50;;
72575;SDS011;60613;48.658;2.328;2023-11-19T11:38:57;8.17;;;1.00;;
72575;SDS011;60613;48.658;2.328;2023-11-19T11:41:25;7.78;;;1.30;;
72575;SDS011;60613;48.658;2.328;2023-11-19T11:43:52;6.95;;;1.40;;
72575;SDS011;60613;48.658;2.328;2023-11-19T11:49:01;9.27;;;1.20;;
72575;SDS011;60613;48.658;2.328;2023-11-19T11:54:09;8.15;;;1.27;;
72575;SDS011;60613;48.658;2.328;2023-11-19T11:56:38;8.95;;;1.42;;
72575;SDS011;60613;48.658;2.328;2023-11-19T11:59:07;10.60;;;1.60;;
72575;SDS011;60613;48.658;2.328;2023-11-19T12:01:57;9.00;;;1.30;;
72575;SDS011;60613;48.658;2.328;2023-11-19T12:04:25;9.63;;;1.30;;
72575;SDS011;60613;48.658;2.328;2023-11-19T12:07:08;10.43;;;1.85;;
72575;SDS011;60613;48.658;2.328;2023-11-19T12:09:51;11.57;;;1.70;;
72575;SDS011;60613;48.658;2.328;2023-11-19T12:12:32;6.77;;;1.30;;
72575;SDS011;60613;48.658;2.328;2023-11-19T12:15:00;10.85;;;1.48;;
72575;SDS011;60613;48.658;2.328;2023-11-19T12:19:59;9.00;;;1.48;;
72575;SDS011;60613;48.658;2.328;2023-11-19T12:22:26;11.43;;;2.05;;
72575;SDS011;60613;48.658;2.328;2023-11-19T12:24:55;9.10;;;1.40;;
72575;SDS011;60613;48.658;2.328;2023-11-19T12:27:21;10.48;;;2.35;;
72575;SDS011;60613;48.658;2.328;2023-11-19T12:29:47;11.70;;;1.70;;
72575;SDS011;60613;48.658;2.328;2023-11-19T12:32:13;11.15;;;1.58;;
72575;SDS011;60613;48.658;2.328;2023-11-19T12:34:39;9.97;;;2.00;;
72575;SDS011;60613;48.658;2.328;2023-11-19T12:37:05;9.45;;;1.65;;
72575;SDS011;60613;48.658;2.328;2023-11-19T12:39:31;10.70;;;2.00;;
72575;SDS011;60613;48.658;2.328;2023-11-19T12:41:57;12.48;;;1.88;;
72575;SDS011;60613;48.658;2.328;2023-11-19T12:44:27;10.80;;;1.70;;
72575;SDS011;60613;48.658;2.328;2023-11-19T12:47:05;12.73;;;2.13;;
72575;SDS011;60613;48.658;2.328;2023-11-19T12:49:32;8.82;;;1.95;;
72575;SDS011;60613;48.658;2.328;2023-11-19T12:51:58;11.67;;;2.23;;
72575;SDS011;60613;48.658;2.328;2023-11-19T12:54:31;9.55;;;2.03;;
72575;SDS011;60613;48.658;2.328;2023-11-19T12:57:00;12.10;;;2.40;;
72575;SDS011;60613;48.658;2.328;2023-11-19T12:59:26;10.35;;;1.90;;
72575;SDS011;60613;48.658;2.328;2023-11-19T13:01:58;14.60;;;2.33;;
72575;SDS011;60613;48.658;2.328;2023-11-19T13:04:28;11.90;;;2.20;;
72575;SDS011;60613;48.658;2.328;2023-11-19T13:06:56;12.88;;;2.15;;
72575;SDS011;60613;48.658;2.328;2023-11-19T13:11:49;13.45;;;2.08;;
72575;SDS011;60613;48.658;2.328;2023-11-19T13:14:14;14.43;;;2.10;;
72575;SDS011;60613;48.658;2.328;2023-11-19T13:16:40;17.93;;;2.20;;
72575;SDS011;60613;48.658;2.328;2023-11-19T13:19:07;13.45;;;2.55;;
72575;SDS011;60613;48.658;2.328;2023-11-19T13:21:33;15.88;;;2.70;;
72575;SDS011;60613;48.658;2.328;2023-11-19T13:23:59;20.33;;;2.60;;
72575;SDS011;60613;48.658;2.328;2023-11-19T13:26:25;20.87;;;2.77;;
72575;SDS011;60613;48.658;2.328;2023-11-19T13:28:50;18.37;;;2.80;;
72575;SDS011;60613;48.658;2.328;2023-11-19T13:31:16;17.93;;;3.03;;
72575;SDS011;60613;48.658;2.328;2023-11-19T13:33:42;20.48;;;3.40;;
72575;SDS011;60613;48.658;2.328;2023-11-19T13:36:08;16.83;;;2.63;;
72575;SDS011;60613;48.658;2.328;2023-11-19T13:38:34;20.17;;;3.13;;
72575;SDS011;60613;48.658;2.328;2023-11-19T13:41:01;17.02;;;2.50;;
72575;SDS011;60613;48.658;2.328;2023-11-19T13:43:27;21.35;;;3.05;;
72575;SDS011;60613;48.658;2.328;2023-11-19T13:45:56;23.60;;;3.43;;
72575;SDS011;60613;48.658;2.328;2023-11-19T13:48:25;18.33;;;2.58;;
72575;SDS011;60613;48.658;2.328;2023-11-19T13:50:52;27.67;;;3.55;;
72575;SDS011;60613;48.658;2.328;2023-11-19T13:53:18;17.42;;;2.63;;
72575;SDS011;60613;48.658;2.328;2023-11-19T13:55:43;21.67;;;2.70;;
72575;SDS011;60613;48.658;2.328;2023-11-19T13:58:09;21.43;;;3.07;;
72575;SDS011;60613;48.658;2.328;2023-11-19T14:00:35;24.83;;;3.13;;
72575;SDS011;60613;48.658;2.328;2023-11-19T14:03:01;21.60;;;3.08;;
72575;SDS011;60613;48.658;2.328;2023-11-19T14:05:27;20.63;;;2.80;;
72575;SDS011;60613;48.658;2.328;2023-11-19T14:07:53;19.87;;;3.03;;
72575;SDS011;60613;48.658;2.328;2023-11-19T14:10:21;17.33;;;2.60;;
72575;SDS011;60613;48.658;2.328;2023-11-19T14:12:47;19.38;;;2.75;;
72575;SDS011;60613;48.658;2.328;2023-11-19T14:15:12;20.23;;;3.17;;
72575;SDS011;60613;48.658;2.328;2023-11-19T14:17:39;19.05;;;2.97;;
72575;SDS011;60613;48.658;2.328;2023-11-19T14:20:05;16.42;;;2.80;;
72575;SDS011;60613;48.658;2.328;2023-11-19T14:22:38;19.57;;;3.07;;
72575;SDS011;60613;48.658;2.328;2023-11-19T14:25:13;21.00;;;3.20;;
72575;SDS011;60613;48.658;2.328;2023-11-19T14:27:42;22.98;;;3.05;;
72575;SDS011;60613;48.658;2.328;2023-11-19T14:30:09;20.70;;;3.10;;
72575;SDS011;60613;48.658;2.328;2023-11-19T14:32:39;18.45;;;2.67;;
72575;SDS011;60613;48.658;2.328;2023-11-19T14:35:07;22.85;;;3.25;;
72575;SDS011;60613;48.658;2.328;2023-11-19T14:37:33;18.48;;;2.92;;
72575;SDS011;60613;48.658;2.328;2023-11-19T14:39:59;18.40;;;2.87;;
72575;SDS011;60613;48.658;2.328;2023-11-19T14:42:25;21.17;;;3.33;;
72575;SDS011;60613;48.658;2.328;2023-11-19T14:44:51;15.90;;;2.75;;
72575;SDS011;60613;48.658;2.328;2023-11-19T14:47:20;16.92;;;2.78;;
72575;SDS011;60613;48.658;2.328;2023-11-19T14:49:46;12.97;;;2.70;;
72575;SDS011;60613;48.658;2.328;2023-11-19T14:52:12;16.50;;;2.33;;
72575;SDS011;60613;48.658;2.328;2023-11-19T14:54:38;15.13;;;2.47;;
72575;SDS011;60613;48.658;2.328;2023-11-19T14:57:04;12.60;;;2.70;;
72575;SDS011;60613;48.658;2.328;2023-11-19T14:59:31;18.30;;;3.17;;
72575;SDS011;60613;48.658;2.328;2023-11-19T15:01:58;15.98;;;2.63;;
72575;SDS011;60613;48.658;2.328;2023-11-19T15:04:24;17.60;;;3.40;;
72575;SDS011;60613;48.658;2.328;2023-11-19T15:06:50;18.83;;;3.53;;
72575;SDS011;60613;48.658;2.328;2023-11-19T15:09:16;19.58;;;3.85;;
72575;SDS011;60613;48.658;2.328;2023-11-19T15:11:45;22.73;;;3.85;;
72575;SDS011;60613;48.658;2.328;2023-11-19T15:14:12;17.75;;;3.45;;
72575;SDS011;60613;48.658;2.328;2023-11-19T15:16:41;18.87;;;3.40;;
72575;SDS011;60613;48.658;2.328;2023-11-19T15:19:07;19.42;;;3.45;;
72575;SDS011;60613;48.658;2.328;2023-11-19T15:21:33;20.08;;;3.70;;
72575;SDS011;60613;48.658;2.328;2023-11-19T15:23:59;18.90;;;3.80;;
72575;SDS011;60613;48.658;2.328;2023-11-19T15:26:25;20.92;;;2.88;;
72575;SDS011;60613;48.658;2.328;2023-11-19T15:28:51;16.50;;;3.22;;
72575;SDS011;60613;48.658;2.328;2023-11-19T15:31:21;18.35;;;3.15;;
72575;SDS011;60613;48.658;2.328;2023-11-19T15:33:47;18.93;;;3.20;;
72575;SDS011;60613;48.658;2.328;2023-11-19T15:36:13;16.88;;;3.05;;
72575;SDS011;60613;48.658;2.328;2023-11-19T15:38:39;19.92;;;3.30;;
72575;SDS011;60613;48.658;2.328;2023-11-19T15:41:05;13.85;;;3.13;;
72575;SDS011;60613;48.658;2.328;2023-11-19T15:43:32;16.07;;;2.83;;
72575;SDS011;60613;48.658;2.328;2023-11-19T15:45:58;18.50;;;2.80;;
72575;SDS011;60613;48.658;2.328;2023-11-19T15:48:24;17.83;;;3.30;;
72575;SDS011;60613;48.658;2.328;2023-11-19T15:50:50;65.70;;;7.40;;
72575;SDS011;60613;48.658;2.328;2023-11-19T15:53:16;19.02;;;2.90;;
72575;SDS011;60613;48.658;2.328;2023-11-19T15:55:43;16.70;;;2.78;;
72575;SDS011;60613;48.658;2.328;2023-11-19T15:58:09;18.05;;;2.97;;
72575;SDS011;60613;48.658;2.328;2023-11-19T16:00:35;17.37;;;3.13;;
72575;SDS011;60613;48.658;2.328;2023-11-19T16:03:00;19.42;;;3.17;;
72575;SDS011;60613;48.658;2.328;2023-11-19T16:05:26;17.57;;;2.90;;
72575;SDS011;60613;48.658;2.328;2023-11-19T16:07:52;17.15;;;2.70;;
72575;SDS011;60613;48.658;2.328;2023-11-19T16:10:17;15.70;;;2.53;;
72575;SDS011;60613;48.658;2.328;2023-11-19T16:12:45;18.30;;;2.80;;
72575;SDS011;60613;48.658;2.328;2023-11-19T16:15:13;14.90;;;2.63;;
72575;SDS011;60613;48.658;2.328;2023-11-19T16:17:40;17.10;;;2.70;;
72575;SDS011;60613;48.658;2.328;2023-11-19T16:20:07;15.80;;;2.40;;
72575;SDS011;60613;48.658;2.328;2023-11-19T16:22:38;13.27;;;2.83;;
72575;SDS011;60613;48.658;2.328;2023-11-19T16:25:04;10.52;;;2.10;;
72575;SDS011;60613;48.658;2.328;2023-11-19T16:27:30;11.55;;;2.55;;
72575;SDS011;60613;48.658;2.328;2023-11-19T16:29:55;12.50;;;2.50;;
72575;SDS011;60613;48.658;2.328;2023-11-19T16:32:21;11.70;;;2.53;;
72575;SDS011;60613;48.658;2.328;2023-11-19T16:34:47;17.38;;;2.40;;
72575;SDS011;60613;48.658;2.328;2023-11-19T16:37:13;17.03;;;2.83;;
72575;SDS011;60613;48.658;2.328;2023-11-19T16:39:41;11.25;;;2.42;;
72575;SDS011;60613;48.658;2.328;2023-11-19T16:42:07;11.10;;;2.33;;
72575;SDS011;60613;48.658;2.328;2023-11-19T16:44:33;10.90;;;2.22;;
72575;SDS011;60613;48.658;2.328;2023-11-19T16:46:59;12.67;;;2.20;;
72575;SDS011;60613;48.658;2.328;2023-11-19T16:49:25;10.93;;;2.10;;
72575;SDS011;60613;48.658;2.328;2023-11-19T16:51:51;11.15;;;2.28;;
72575;SDS011;60613;48.658;2.328;2023-11-19T16:54:19;9.23;;;2.37;;
72575;SDS011;60613;48.658;2.328;2023-11-19T16:56:45;10.38;;;2.30;;
72575;SDS011;60613;48.658;2.328;2023-11-19T16:59:10;11.13;;;2.37;;
72575;SDS011;60613;48.658;2.328;2023-11-19T17:01:36;12.83;;;2.30;;
72575;SDS011;60613;48.658;2.328;2023-11-19T17:04:05;11.52;;;2.65;;
72575;SDS011;60613;48.658;2.328;2023-11-19T17:06:32;11.07;;;2.10;;
72575;SDS011;60613;48.658;2.328;2023-11-19T17:08:58;7.17;;;2.10;;
72575;SDS011;60613;48.658;2.328;2023-11-19T17:11:24;11.13;;;2.30;;
72575;SDS011;60613;48.658;2.328;2023-11-19T17:13:50;11.20;;;2.43;;
72575;SDS011;60613;48.658;2.328;2023-11-19T17:16:16;8.55;;;2.20;;
72575;SDS011;60613;48.658;2.328;2023-11-19T17:18:42;10.02;;;2.35;;
72575;SDS011;60613;48.658;2.328;2023-11-19T17:21:07;11.70;;;2.33;;
72575;SDS011;60613;48.658;2.328;2023-11-19T17:23:33;8.15;;;2.10;;
72575;SDS011;60613;48.658;2.328;2023-11-19T17:25:59;9.27;;;2.53;;
72575;SDS011;60613;48.658;2.328;2023-11-19T17:28:24;9.30;;;2.63;;
72575;SDS011;60613;48.658;2.328;2023-11-19T17:30:50;9.93;;;2.40;;
72575;SDS011;60613;48.658;2.328;2023-11-19T17:33:16;11.00;;;2.33;;
72575;SDS011;60613;48.658;2.328;2023-11-19T17:35:42;10.15;;;2.75;;
72575;SDS011;60613;48.658;2.328;2023-11-19T17:38:07;9.25;;;2.03;;
72575;SDS011;60613;48.658;2.328;2023-11-19T17:40:33;10.50;;;2.53;;
72575;SDS011;60613;48.658;2.328;2023-11-19T17:42:59;11.55;;;2.30;;
72575;SDS011;60613;48.658;2.328;2023-11-19T17:45:24;12.00;;;2.77;;
72575;SDS011;60613;48.658;2.328;2023-11-19T17:47:51;13.02;;;2.60;;
72575;SDS011;60613;48.658;2.328;2023-11-19T17:50:17;11.93;;;2.60;;
72575;SDS011;60613;48.658;2.328;2023-11-19T17:52:50;10.32;;;2.60;;
72575;SDS011;60613;48.658;2.328;2023-11-19T17:55:16;11.93;;;2.58;;
72575;SDS011;60613;48.658;2.328;2023-11-19T17:57:42;12.10;;;2.87;;
72575;SDS011;60613;48.658;2.328;2023-11-19T18:00:08;14.23;;;3.08;;
72575;SDS011;60613;48.658;2.328;2023-11-19T18:02:44;12.80;;;3.30;;
72575;SDS011;60613;48.658;2.328;2023-11-19T18:05:11;18.13;;;3.70;;
72575;SDS011;60613;48.658;2.328;2023-11-19T18:07:37;19.63;;;4.03;;
72575;SDS011;60613;48.658;2.328;2023-11-19T18:10:04;20.77;;;4.38;;
72575;SDS011;60613;48.658;2.328;2023-11-19T18:12:32;18.67;;;4.88;;
72575;SDS011;60613;48.658;2.328;2023-11-19T18:14:58;18.90;;;3.88;;
72575;SDS011;60613;48.658;2.328;2023-11-19T18:17:23;20.33;;;4.40;;
72575;SDS011;60613;48.658;2.328;2023-11-19T18:19:49;17.70;;;4.50;;
72575;SDS011;60613;48.658;2.328;2023-11-19T18:22:14;17.70;;;4.53;;
72575;SDS011;60613;48.658;2.328;2023-11-19T18:24:40;18.57;;;3.90;;
72575;SDS011;60613;48.658;2.328;2023-11-19T18:27:06;17.15;;;4.18;;
72575;SDS011;60613;48.658;2.328;2023-11-19T18:29:31;21.47;;;4.53;;
72575;SDS011;60613;48.658;2.328;2023-11-19T18:31:57;17.60;;;4.13;;
72575;SDS011;60613;48.658;2.328;2023-11-19T18:34:22;16.80;;;3.85;;
72575;SDS011;60613;48.658;2.328;2023-11-19T18:36:49;16.65;;;3.85;;
72575;SDS011;60613;48.658;2.328;2023-11-19T18:39:14;19.57;;;3.80;;
72575;SDS011;60613;48.658;2.328;2023-11-19T18:41:40;15.82;;;3.50;;
72575;SDS011;60613;48.658;2.328;2023-11-19T18:44:06;13.97;;;3.77;;
72575;SDS011;60613;48.658;2.328;2023-11-19T18:46:32;14.18;;;3.88;;
72575;SDS011;60613;48.658;2.328;2023-11-19T18:48:58;13.70;;;3.40;;
72575;SDS011;60613;48.658;2.328;2023-11-19T18:51:24;12.63;;;3.70;;
72575;SDS011;60613;48.658;2.328;2023-11-19T18:53:51;13.77;;;3.75;;
72575;SDS011;60613;48.658;2.328;2023-11-19T18:56:16;14.27;;;3.87;;
72575;SDS011;60613;48.658;2.328;2023-11-19T18:58:42;14.68;;;4.13;;
72575;SDS011;60613;48.658;2.328;2023-11-19T19:01:08;12.45;;;3.92;;
72575;SDS011;60613;48.658;2.328;2023-11-19T19:03:34;14.17;;;3.70;;
72575;SDS011;60613;48.658;2.328;2023-11-19T19:06:01;12.10;;;3.30;;
72575;SDS011;60613;48.658;2.328;2023-11-19T19:08:29;13.65;;;3.40;;
72575;SDS011;60613;48.658;2.328;2023-11-19T19:10:57;15.10;;;3.70;;
72575;SDS011;60613;48.658;2.328;2023-11-19T19:13:22;13.50;;;3.45;;
72575;SDS011;60613;48.658;2.328;2023-11-19T19:15:48;10.77;;;3.13;;
72575;SDS011;60613;48.658;2.328;2023-11-19T19:18:13;11.68;;;3.30;;
72575;SDS011;60613;48.658;2.328;2023-11-19T19:20:39;10.73;;;3.33;;
72575;SDS011;60613;48.658;2.328;2023-11-19T19:23:05;11.13;;;3.20;;
72575;SDS011;60613;48.658;2.328;2023-11-19T19:25:30;14.80;;;3.67;;
72575;SDS011;60613;48.658;2.328;2023-11-19T19:27:56;12.50;;;3.47;;
72575;SDS011;60613;48.658;2.328;2023-11-19T19:30:22;13.82;;;3.50;;
72575;SDS011;60613;48.658;2.328;2023-11-19T19:32:49;12.70;;;3.28;;
72575;SDS011;60613;48.658;2.328;2023-11-19T19:35:15;10.35;;;3.10;;
72575;SDS011;60613;48.658;2.328;2023-11-19T19:37:41;11.07;;;2.80;;
72575;SDS011;60613;48.658;2.328;2023-11-19T19:40:08;10.40;;;3.00;;
72575;SDS011;60613;48.658;2.328;2023-11-19T19:42:36;8.85;;;2.53;;
72575;SDS011;60613;48.658;2.328;2023-11-19T19:45:06;11.85;;;3.00;;
72575;SDS011;60613;48.658;2.328;2023-11-19T19:47:34;8.98;;;2.80;;
72575;SDS011;60613;48.658;2.328;2023-11-19T19:50:02;10.40;;;2.85;;
72575;SDS011;60613;48.658;2.328;2023-11-19T19:52:28;10.87;;;2.97;;
72575;SDS011;60613;48.658;2.328;2023-11-19T19:54:57;11.10;;;2.70;;
72575;SDS011;60613;48.658;2.328;2023-11-19T19:57:23;9.15;;;2.80;;
72575;SDS011;60613;48.658;2.328;2023-11-19T19:59:48;9.67;;;2.43;;
72575;SDS011;60613;48.658;2.328;2023-11-19T20:02:14;9.57;;;2.80;;
72575;SDS011;60613;48.658;2.328;2023-11-19T20:04:40;8.45;;;2.40;;
72575;SDS011;60613;48.658;2.328;2023-11-19T20:07:08;8.27;;;2.47;;
72575;SDS011;60613;48.658;2.328;2023-11-19T20:09:34;9.45;;;2.30;;
72575;SDS011;60613;48.658;2.328;2023-11-19T20:12:00;9.65;;;2.80;;
72575;SDS011;60613;48.658;2.328;2023-11-19T20:14:26;10.60;;;2.35;;
72575;SDS011;60613;48.658;2.328;2023-11-19T20:16:53;8.80;;;2.60;;
72575;SDS011;60613;48.658;2.328;2023-11-19T20:19:18;10.07;;;2.65;;
72575;SDS011;60613;48.658;2.328;2023-11-19T20:21:44;8.75;;;2.33;;
72575;SDS011;60613;48.658;2.328;2023-11-19T20:24:09;9.40;;;2.53;;
72575;SDS011;60613;48.658;2.328;2023-11-19T20:26:35;9.37;;;2.60;;
72575;SDS011;60613;48.658;2.328;2023-11-19T20:29:02;9.43;;;2.45;;
72575;SDS011;60613;48.658;2.328;2023-11-19T20:31:28;8.57;;;2.40;;
72575;SDS011;60613;48.658;2.328;2023-11-19T20:33:53;9.30;;;2.50;;
72575;SDS011;60613;48.658;2.328;2023-11-19T20:36:19;8.60;;;2.40;;
72575;SDS011;60613;48.658;2.328;2023-11-19T20:38:45;9.27;;;2.70;;
72575;SDS011;60613;48.658;2.328;2023-11-19T20:41:11;9.40;;;2.43;;
72575;SDS011;60613;48.658;2.328;2023-11-19T20:43:36;8.20;;;2.50;;
72575;SDS011;60613;48.658;2.328;2023-11-19T20:46:02;11.25;;;2.90;;
72575;SDS011;60613;48.658;2.328;2023-11-19T20:48:29;8.32;;;2.40;;
72575;SDS011;60613;48.658;2.328;2023-11-19T20:50:55;9.40;;;2.33;;
72575;SDS011;60613;48.658;2.328;2023-11-19T20:53:21;9.65;;;2.55;;
72575;SDS011;60613;48.658;2.328;2023-11-19T20:55:47;8.50;;;2.50;;
72575;SDS011;60613;48.658;2.328;2023-11-19T20:58:13;10.10;;;2.70;;
72575;SDS011;60613;48.658;2.328;2023-11-19T21:00:39;10.93;;;2.90;;
72575;SDS011;60613;48.658;2.328;2023-11-19T21:03:07;9.52;;;2.85;;
72575;SDS011;60613;48.658;2.328;2023-11-19T21:05:36;10.20;;;2.70;;
72575;SDS011;60613;48.658;2.328;2023-11-19T21:08:03;11.23;;;2.60;;
72575;SDS011;60613;48.658;2.328;2023-11-19T21:10:29;10.38;;;2.53;;
72575;SDS011;60613;48.658;2.328;2023-11-19T21:12:54;10.93;;;2.50;;
72575;SDS011;60613;48.658;2.328;2023-11-19T21:15:20;10.25;;;2.75;;
72575;SDS011;60613;48.658;2.328;2023-11-19T21:17:45;7.87;;;2.27;;
72575;SDS011;60613;48.658;2.328;2023-11-19T21:20:11;9.70;;;2.30;;
72575;SDS011;60613;48.658;2.328;2023-11-19T21:22:37;8.87;;;2.27;;
72575;SDS011;60613;48.658;2.328;2023-11-19T21:25:06;10.18;;;2.67;;
72575;SDS011;60613;48.658;2.328;2023-11-19T21:27:32;8.32;;;2.00;;
72575;SDS011;60613;48.658;2.328;2023-11-19T21:29:58;9.20;;;2.30;;
72575;SDS011;60613;48.658;2.328;2023-11-19T21:32:24;8.13;;;2.10;;
72575;SDS011;60613;48.658;2.328;2023-11-19T21:34:50;9.65;;;2.30;;
72575;SDS011;60613;48.658;2.328;2023-11-19T21:37:16;9.68;;;2.40;;
72575;SDS011;60613;48.658;2.328;2023-11-19T21:39:42;8.00;;;2.00;;
72575;SDS011;60613;48.658;2.328;2023-11-19T21:42:08;11.50;;;2.20;;
72575;SDS011;60613;48.658;2.328;2023-11-19T21:44:34;9.32;;;2.28;;
72575;SDS011;60613;48.658;2.328;2023-11-19T21:47:02;10.98;;;2.40;;
72575;SDS011;60613;48.658;2.328;2023-11-19T21:49:27;8.97;;;2.10;;
72575;SDS011;60613;48.658;2.328;2023-11-19T21:51:53;9.43;;;2.00;;
72575;SDS011;60613;48.658;2.328;2023-11-19T21:54:19;11.03;;;2.27;;
72575;SDS011;60613;48.658;2.328;2023-11-19T21:56:44;7.03;;;1.87;;
72575;SDS011;60613;48.658;2.328;2023-11-19T21:59:10;11.77;;;2.40;;
72575;SDS011;60613;48.658;2.328;2023-11-19T22:01:35;9.67;;;2.07;;